AirNav   TITAN Aviation Fuels
 
 886 users online  

08CL Kistler Ranch Airport
Jamestown, California, USA

GOING TO JAMESTOWN?


FAA INFORMATION EFFECTIVE 01 DECEMBER 2022

Location

FAA Identifier: 08CL
Lat/Long: 37-51-34.7370N 120-33-15.7190W
37-51.578950N 120-33.261983W
37.8596492,-120.5543664
(estimated)
Elevation: 1025 ft. / 312 m (estimated)
Variation: 16E (1985)
From city: 9 miles SW of JAMESTOWN, CA
Time zone: UTC -8 (UTC -7 during Daylight Saving Time)
Zip code: 95327

Airport Operations

Airport use: Private use. Permission required prior to landing
Activation date: 04/1964
Control tower: no
ARTCC: OAKLAND CENTER
FSS: RANCHO MURIETA FLIGHT SERVICE STATION
Attendance: UNATNDD
Wind indicator: yes
Segmented circle: no

Airport Communications

WX AWOS-3 at O22 (12 nm NE): 124.65 (209-536-9384)
WX AWOS-3P at CPU (18 nm N): 118.525 (209-736-2523)

Nearby radio navigation aids

VOR radial/distance  VOR name  Freq  Var
MODr037/23.7MODESTO VOR/DME114.6017E
LINr104/24.9LINDEN VOR/DME114.8017E
HYPr334/39.1EL NIDO VOR/DME114.2015E

Airport Services

Airframe service: NONE
Powerplant service: NONE

Runway Information

Runway E/W

Dimensions: 2000 x 50 ft. / 610 x 15 m
Surface: dirt
RUNWAY E  RUNWAY W
Traffic pattern: rightright

Airport Ownership and Management from official FAA records

Ownership: Privately-owned
Owner: MATTHEW KISTLER
11400 STATE HWY 108
JAMESTOWN, CA 95327
Phone (209) 606-0902
Manager: MATTHEW KISTLER
11400 STATE HWY 108
JAMESTOWN, CA 95321
Phone (209) 606-0902

Additional Remarks

FOR CD CTC NORCAL APCH AT 916-361-0516.

Instrument Procedures

There are no published instrument procedures at 08CL.

Some nearby airports with instrument procedures:

O22 - Columbia Airport (12 nm NE)
O27 - Oakdale Airport (13 nm SW)
KCPU - Calaveras County Airport - Maury Rasmussen Field (18 nm N)
E45 - Pine Mountain Lake Airport (18 nm E)
KMOD - Modesto City-County Airport-Harry Sham Field (24 nm SW)
 
Loc | Ops | Rwys | IFR | FBO | Links
Com | Nav | Svcs | Stats | Notes
Area around 08CL (Kistler Ranch Airport)
 
Road maps at: MapQuest Bing Google
 
Aerial photo
No photo
 
Sectional chart

 
Airport distance calculator
Flying to Kistler Ranch Airport? Find the distance to fly.

From to 08CL

Sunrise and sunset
Times for 06-Dec-2022
 Local
(UTC-8)
 Zulu
(UTC)
Morning civil twilight06:3614:36
Sunrise07:0515:05
Sunset16:4200:42
Evening civil twilight17:1101:11

Current date and time
Zulu (UTC)  07-Dec-2022 05:02:55
Local (UTC-8)  06-Dec-2022 21:02:55
 
METAR
KO22 
12nm NE 
070455Z AUTO 00000KT 10SM CLR 02/02 A3006 RMK A01
KCPU 
18nm N 
070455Z AUTO 00000KT 10SM CLR 05/04 A3008 RMK AO2 T00500036
KMOD 
24nm SW 
070453Z 31007KT 10SM CLR 08/06 A3009 RMK AO2 SLP188 T00780056
TAF
KMOD 
24nm SW 
062214Z 0622/0718 32007KT P6SM BKN045 BKN250 FM070300 VRB05KT P6SM SCT250 FM070900 00000KT 5SM BR OVC050 FM071200 00000KT 3SM BR OVC050 TEMPO 0713/0717 1/4SM FG OVC001
KMER 
29nm S 
061727Z 0618/0718 VRB04KT P6SM BKN050 FM070900 VRB04KT 4SM BR SCT250 TEMPO 0713/0717 2SM BR
NOTAMs
Click for the latest NOTAMs
NOTAMs are issued by the DoD/FAA and will open in a separate window not controlled by AirNav.

 

 
 

Would you like to see your business listed on this page?

 If your business provides an interesting product or service to pilots, flight crews, aircraft, or users of the Kistler Ranch Airport, you should consider listing it here.  To start the listing process, click on the button below
 
Add a business
 

Other Pages about Kistler Ranch Airport

Update a link
 
Copyright © AirNav, LLC. All rights reserved. Privacy Policy  Contact